Meteo Giornale » Osservazioni meteo Italia » Brescia-Montichiari

ore: 18:50 - Osservazioni Meteo Brescia-Montichiari
Lat. 45° 24' N Lon. 10° 18' E Alt. 104 metri s.l.m.

sereno Europe/Rome

30 °C

Sereno

Temp. 24 Ore

21 °C

32 °C

Ovest

7.4 Km/h

Dew point 18 °C

Umidità 48 %

Visibilità  10 Km

Il sole sorge alle ore 05:28

Il sole tramonta alle ore 21:12

Data e Ora Cielo e Fenomeni T °C DP °C Um. % Pres. hPa Vis. km Vento km/h
Oggi h: 18:50 sereno Sereno 30 18 48 1011 10 O 7.4
Oggi h: 16:50 poco_nuvoloso Poco Nuvoloso 32 16 38 1012 10 O 13
Oggi h: 15:50 sereno Sereno 31 16 40 1013 10 O 14.8
Oggi h: 12:50 sereno Sereno 30 16 42 1015 10 N 5.5
Oggi h: 11:50 sereno Sereno 29 17 48 1016 10 O 11.1
Oggi h: 10:50 sereno Sereno 28 17 51 1016 10 N 3.7
Oggi h: 09:50 sereno Sereno 27 18 57 1017 10 N 5.5
Oggi h: 08:50 sereno Sereno 27 17 54 1017 10 N 3.7
Oggi h: 07:50 sereno Sereno 24 17 64 1017 10 E/NE 9.3
Oggi h: 06:50 sereno Sereno 22 17 73 1016 10 N 5.5
Oggi h: 05:50 sereno Sereno 21 17 77 1017 10 NE 7.4
Oggi h: 04:50 sereno Sereno 21 17 77 1017 10 NE 7.4
Oggi h: 03:50 sereno Sereno 21 17 77 1017 10 E/NE 7.4
Oggi h: 02:50 sereno Sereno 22 17 73 1018 10 N/NE 7.4
Oggi h: 01:50 sereno Sereno 23 17 68 1018 10 N 5.5
Oggi h: 00:50 sereno Sereno 23 17 68 1018 10 NE 7.4
Ieri h: 23:50 sereno Sereno 24 17 64 1019 10 NE 7.4
Ieri h: 22:50 sereno Sereno 25 17 61 1018 10 E/NE 7.4
Ieri h: 21:50 sereno Sereno 27 16 50 1018 10 SE 7.4
Ieri h: 20:50 sereno Sereno 28 14 42 1018 10 N 5.5
Ieri h: 19:50 sereno Sereno 30 13 35 1017 10 S 7.4